createdAt,value
2023-03-06T00:01:33.351Z,-2.05
2023-03-06T00:06:38.695Z,-1.94
2023-03-06T00:11:44.162Z,-1.88
2023-03-06T00:16:49.952Z,-1.76
2023-03-06T00:21:55.570Z,-1.84
2023-03-06T00:27:01.088Z,-1.79
2023-03-06T00:32:07.101Z,-2.06
2023-03-06T00:37:12.811Z,-2.10
2023-03-06T00:42:19.820Z,-2.02
2023-03-06T00:47:25.296Z,-2.61
2023-03-06T00:52:30.644Z,-2.68
2023-03-06T00:57:36.031Z,-2.38
2023-03-06T01:02:42.112Z,-2.53
2023-03-06T01:07:47.646Z,-2.76
2023-03-06T01:12:53.229Z,-2.87
2023-03-06T01:17:58.640Z,-3.28
2023-03-06T01:23:04.133Z,-2.82
2023-03-06T01:28:09.580Z,-2.54
2023-03-06T01:33:15.009Z,-2.61
2023-03-06T01:38:20.713Z,-2.39
2023-03-06T01:43:30.812Z,-2.73
2023-03-06T01:48:36.237Z,-2.46
2023-03-06T01:53:44.219Z,-2.62
2023-03-06T01:58:50.319Z,-3.36
2023-03-06T02:03:56.506Z,-3.49
2023-03-06T02:09:02.696Z,-3.33
2023-03-06T02:14:08.129Z,-3.28
2023-03-06T02:19:57.450Z,-3.28
2023-03-06T02:25:34.524Z,-3.40
2023-03-06T02:30:40.703Z,-3.68
2023-03-06T02:36:03.117Z,-3.60
2023-03-06T02:41:09.866Z,-3.53
2023-03-06T02:46:15.779Z,-3.16
2023-03-06T02:51:23.728Z,-3.46
2023-03-06T02:56:29.345Z,-3.62
2023-03-06T03:01:36.039Z,-3.72
2023-03-06T03:06:42.139Z,-3.87
2023-03-06T03:11:49.058Z,-3.92
2023-03-06T03:16:54.846Z,-4.05
2023-03-06T03:22:00.292Z,-4.14
2023-03-06T03:27:05.907Z,-3.93
2023-03-06T03:32:11.841Z,-3.99
2023-03-06T03:37:23.090Z,-3.61
2023-03-06T03:42:30.232Z,-3.53
2023-03-06T03:47:35.895Z,-3.20
2023-03-06T03:52:41.503Z,-2.40
2023-03-06T03:57:47.712Z,-1.50
2023-03-06T04:02:53.438Z,-1.09
2023-03-06T04:08:07.524Z,-0.76
2023-03-06T04:13:21.684Z,-0.03
2023-03-06T04:18:29.131Z,-0.86
2023-03-06T04:23:40.108Z,-0.86
2023-03-06T04:28:45.923Z,0.00
2023-03-06T04:33:50.392Z,1.26
2023-03-06T04:38:55.333Z,2.80
2023-03-06T04:43:59.800Z,3.38
2023-03-06T04:49:05.247Z,3.18
2023-03-06T04:54:10.350Z,3.69
2023-03-06T04:59:15.917Z,4.32
2023-03-06T05:04:20.618Z,4.63
2023-03-06T05:09:25.499Z,5.57
2023-03-06T05:14:31.377Z,6.13
2023-03-06T05:19:36.295Z,5.96
2023-03-06T05:24:40.565Z,6.51
2023-03-06T05:29:45.123Z,6.15
2023-03-06T05:34:55.341Z,6.50
2023-03-06T05:39:59.739Z,7.20
2023-03-06T05:45:05.246Z,7.73
2023-03-06T05:50:11.113Z,7.36
2023-03-06T05:55:16.196Z,7.03
2023-03-06T06:00:21.459Z,7.25
2023-03-06T06:05:25.699Z,6.47
2023-03-06T06:10:30.230Z,6.39
2023-03-06T06:15:34.581Z,5.77
2023-03-06T06:20:38.871Z,5.39
2023-03-06T06:25:43.069Z,5.24
2023-03-06T06:30:47.299Z,5.08
2023-03-06T06:35:52.539Z,5.12
2023-03-06T06:41:30.736Z,5.12
2023-03-06T06:47:02.632Z,5.53
2023-03-06T06:51:45.723Z,5.81
2023-03-06T06:56:50.098Z,5.80
2023-03-06T07:01:54.380Z,5.97
2023-03-06T07:07:00.818Z,5.80
2023-03-06T07:12:05.140Z,5.89
2023-03-06T07:17:10.488Z,5.79
2023-03-06T07:22:14.629Z,5.76
2023-03-06T07:27:23.668Z,6.00
2023-03-06T07:32:28.701Z,6.17
2023-03-06T07:37:36.550Z,6.49
2023-03-06T07:42:40.715Z,6.33
2023-03-06T07:47:51.349Z,6.36
2023-03-06T07:52:55.601Z,7.06
2023-03-06T07:57:59.764Z,7.25
2023-03-06T08:03:04.068Z,7.24
2023-03-06T08:08:08.716Z,7.15
2023-03-06T08:13:12.916Z,7.29
2023-03-06T08:18:17.196Z,7.32
2023-03-06T08:23:21.292Z,7.71
2023-03-06T08:28:25.665Z,7.53
2023-03-06T08:33:29.903Z,7.70
2023-03-06T08:38:34.112Z,7.20
2023-03-06T08:43:38.367Z,6.99
2023-03-06T08:48:43.442Z,6.60
2023-03-06T08:53:48.293Z,5.79
2023-03-06T08:58:53.687Z,5.73
2023-03-06T09:04:00.467Z,6.11
2023-03-06T09:09:06.295Z,6.33
2023-03-06T09:14:10.593Z,6.38
2023-03-06T09:19:14.752Z,6.12
2023-03-06T09:24:18.932Z,6.15
2023-03-06T09:29:23.090Z,6.08
2023-03-06T09:34:28.310Z,6.35
2023-03-06T09:39:32.485Z,6.32
2023-03-06T09:44:41.620Z,6.36
2023-03-06T09:50:05.580Z,6.51
2023-03-06T09:55:29.724Z,6.35
2023-03-06T10:00:39.301Z,5.68
2023-03-06T10:05:49.873Z,5.85
2023-03-06T10:11:03.018Z,6.23
2023-03-06T10:16:30.578Z,6.39
2023-03-06T10:21:40.988Z,6.50
2023-03-06T10:26:55.750Z,6.60
2023-03-06T10:32:13.245Z,6.21
2023-03-06T10:37:22.942Z,6.40
2023-03-06T10:42:28.866Z,6.52
2023-03-06T10:47:38.086Z,6.78
2023-03-06T10:52:42.194Z,7.08
2023-03-06T10:57:47.566Z,6.89
2023-03-06T11:03:07.275Z,6.75
2023-03-06T11:08:23.128Z,6.75
2023-03-06T11:13:30.729Z,6.79
2023-03-06T11:18:39.761Z,6.46
2023-03-06T11:23:47.146Z,6.31
2023-03-06T11:29:03.579Z,6.35
2023-03-06T11:34:24.243Z,6.41
2023-03-06T11:39:48.510Z,6.69
2023-03-06T11:45:05.547Z,6.78
2023-03-06T11:50:33.618Z,6.16
2023-03-06T11:55:49.991Z,6.48
2023-03-06T12:00:59.602Z,6.25
2023-03-06T12:06:11.897Z,6.03
2023-03-06T12:11:24.674Z,6.16
2023-03-06T12:16:56.398Z,6.13
2023-03-06T12:22:29.113Z,6.04
2023-03-06T12:28:04.049Z,5.93
2023-03-06T12:33:46.418Z,5.85
2023-03-06T12:39:15.090Z,6.00
2023-03-06T12:44:43.863Z,5.84
2023-03-06T12:50:18.853Z,5.61
2023-03-06T12:55:26.193Z,5.57
2023-03-06T13:00:36.450Z,5.52
2023-03-06T13:05:56.662Z,5.35
2023-03-06T13:11:28.432Z,5.39
2023-03-06T13:16:35.026Z,5.21
2023-03-06T13:21:43.524Z,4.97
2023-03-06T13:26:48.732Z,4.80
2023-03-06T13:31:55.968Z,4.62
2023-03-06T13:37:28.537Z,4.47
2023-03-06T13:42:32.716Z,4.25
2023-03-06T13:48:09.709Z,4.10
2023-03-06T13:53:19.272Z,3.88
2023-03-06T13:58:46.316Z,3.71
2023-03-06T14:04:05.268Z,3.58
2023-03-06T14:09:46.926Z,3.52
2023-03-06T14:15:00.996Z,3.40
2023-03-06T14:20:19.395Z,3.19
2023-03-06T14:25:32.842Z,3.00
2023-03-06T14:30:38.534Z,2.88
2023-03-06T14:35:56.641Z,2.63
2023-03-06T14:41:03.323Z,2.44
2023-03-06T14:46:20.749Z,2.39
2023-03-06T14:51:35.457Z,2.23
2023-03-06T14:56:43.658Z,1.97
2023-03-06T15:02:23.109Z,1.85
2023-03-06T15:07:32.709Z,1.73
2023-03-06T15:12:39.496Z,1.60
2023-03-06T15:17:48.760Z,1.50
2023-03-06T15:22:58.602Z,1.39
2023-03-06T15:28:36.432Z,1.18
2023-03-06T15:33:43.154Z,1.13
2023-03-06T15:38:49.939Z,1.13
2023-03-06T15:43:56.959Z,1.01
2023-03-06T15:49:04.796Z,0.91
2023-03-06T15:54:12.981Z,0.85
2023-03-06T15:59:35.748Z,0.76
2023-03-06T16:04:41.325Z,0.73
2023-03-06T16:09:48.590Z,0.70
2023-03-06T16:15:01.590Z,0.50
2023-03-06T16:20:23.045Z,0.36
2023-03-06T16:25:32.314Z,0.27
2023-03-06T16:30:40.889Z,0.22
2023-03-06T16:35:47.871Z,0.10
2023-03-06T16:40:56.020Z,0.08
2023-03-06T16:46:06.498Z,0.05
2023-03-06T16:51:18.893Z,0.06
2023-03-06T16:56:25.699Z,0.01
2023-03-06T17:01:31.480Z,-0.24
2023-03-06T17:06:42.510Z,-0.39
2023-03-06T17:11:51.044Z,-0.38
2023-03-06T17:17:22.522Z,-0.38
2023-03-06T17:22:29.538Z,-0.12
2023-03-06T17:27:36.127Z,-0.64
2023-03-06T17:32:46.829Z,-0.92
2023-03-06T17:37:53.512Z,-0.94
2023-03-06T17:43:03.111Z,-1.04
2023-03-06T17:48:34.419Z,-1.19
2023-03-06T17:53:40.733Z,-1.18
2023-03-06T17:58:46.352Z,-0.87
2023-03-06T18:03:52.489Z,-0.86
2023-03-06T18:09:02.056Z,-0.68
2023-03-06T18:14:08.233Z,-0.61
2023-03-06T18:19:16.409Z,-0.73
2023-03-06T18:24:23.050Z,-0.63
2023-03-06T18:29:34.169Z,-0.72
2023-03-06T18:34:40.829Z,-1.04
2023-03-06T18:39:46.606Z,-0.99
2023-03-06T18:44:52.205Z,-0.80
2023-03-06T18:50:03.348Z,-0.63
2023-03-06T18:55:09.590Z,-0.52
2023-03-06T19:00:15.815Z,-0.45
2023-03-06T19:05:28.921Z,-0.62
2023-03-06T19:10:39.765Z,-0.46
2023-03-06T19:15:50.087Z,-0.67
2023-03-06T19:21:16.698Z,-1.08
2023-03-06T19:26:22.725Z,-1.22
2023-03-06T19:31:29.368Z,-1.18
2023-03-06T19:36:35.414Z,-1.08
2023-03-06T19:41:43.282Z,-1.25
2023-03-06T19:46:48.685Z,-1.00
2023-03-06T19:51:55.714Z,-0.86
2023-03-06T19:57:02.605Z,-1.08
2023-03-06T20:02:12.283Z,-0.97
2023-03-06T20:07:17.714Z,-1.34
2023-03-06T20:12:24.501Z,-1.59
2023-03-06T20:17:33.392Z,-1.52
2023-03-06T20:22:38.945Z,-1.59
2023-03-06T20:27:44.427Z,-1.70
2023-03-06T20:32:49.913Z,-1.68
2023-03-06T20:37:55.688Z,-1.58
2023-03-06T20:43:01.061Z,-1.52
2023-03-06T20:48:07.814Z,-1.70
2023-03-06T20:53:13.300Z,-1.48
2023-03-06T20:58:18.993Z,-1.30
2023-03-06T21:03:26.215Z,-1.14
2023-03-06T21:08:32.328Z,-1.12
2023-03-06T21:13:37.868Z,-1.29
2023-03-06T21:18:43.478Z,-1.32
2023-03-06T21:23:49.685Z,-1.25
2023-03-06T21:28:57.688Z,-1.28
2023-03-06T21:34:28.520Z,-1.42
2023-03-06T21:39:34.016Z,-1.44
2023-03-06T21:44:39.436Z,-1.56
2023-03-06T21:49:48.759Z,-1.74
2023-03-06T21:54:53.811Z,-1.98
2023-03-06T21:59:59.270Z,-2.03
2023-03-06T22:05:05.407Z,-2.20
2023-03-06T22:10:14.916Z,-2.00
2023-03-06T22:15:22.365Z,-2.20
2023-03-06T22:20:27.816Z,-2.26
2023-03-06T22:25:35.592Z,-2.41
2023-03-06T22:30:42.428Z,-2.41
2023-03-06T22:35:47.970Z,-2.38
2023-03-06T22:40:58.752Z,-2.33
2023-03-06T22:46:07.940Z,-2.28
2023-03-06T22:51:16.546Z,-2.27
2023-03-06T22:56:23.381Z,-2.34
2023-03-06T23:01:31.303Z,-2.37
2023-03-06T23:06:39.176Z,-2.44
2023-03-06T23:11:44.615Z,-2.48
2023-03-06T23:17:09.903Z,-2.52
2023-03-06T23:22:34.939Z,-2.54
2023-03-06T23:28:00.166Z,-2.36
2023-03-06T23:33:05.854Z,-2.16
2023-03-06T23:38:11.995Z,-2.01
2023-03-06T23:43:17.770Z,-1.86
2023-03-06T23:48:23.562Z,-1.97
2023-03-06T23:53:28.959Z,-1.87
2023-03-06T23:58:34.701Z,-1.81
